createdAt,value
2023-05-25T08:11:06.307Z,14.20
2023-05-25T08:13:33.021Z,14.60
2023-05-25T08:15:59.683Z,14.50
2023-05-25T08:18:26.413Z,14.50
2023-05-25T08:20:53.108Z,14.60
2023-05-25T08:23:19.792Z,14.50
2023-05-25T08:25:46.667Z,14.50
2023-05-25T08:28:13.582Z,14.60
2023-05-25T08:30:41.160Z,14.70
2023-05-25T10:42:14.071Z,14.80
2023-05-25T10:44:44.737Z,16.30
2023-05-25T10:47:12.272Z,16.00
2023-05-25T10:49:56.116Z,16.20
2023-05-25T10:52:27.700Z,16.40
2023-05-25T10:55:01.546Z,16.60
2023-05-25T10:57:28.200Z,16.70
2023-05-25T11:00:00.996Z,16.70
2023-05-25T11:02:28.960Z,16.40
2023-05-25T11:05:30.789Z,16.70
2023-05-25T11:07:58.578Z,16.90
2023-05-25T11:10:50.297Z,16.80
2023-05-25T12:49:32.106Z,17.80
2023-05-25T12:52:01.203Z,19.90
2023-05-25T12:54:35.658Z,19.70
2023-05-25T12:57:05.585Z,19.70
2023-05-25T12:59:33.556Z,19.90
2023-05-25T13:02:00.593Z,20.10
2023-05-25T13:04:27.696Z,19.90
2023-05-25T13:06:55.555Z,19.80
2023-05-25T21:33:53.452Z,20.10
2023-05-25T21:36:20.790Z,16.30
2023-05-25T21:38:47.517Z,15.90
2023-05-25T21:51:02.873Z,15.80
2023-05-25T21:58:23.827Z,15.40
2023-05-25T22:00:50.652Z,15.20
2023-05-25T22:03:18.499Z,15.00
2023-05-25T22:20:29.272Z,14.90
2023-05-25T22:22:56.016Z,14.50
2023-05-25T22:25:22.854Z,14.40
2023-05-25T22:27:49.536Z,14.40
2023-05-25T22:30:16.309Z,14.30
2023-05-25T22:42:32.836Z,14.20
2023-05-25T22:44:59.528Z,14.00
2023-05-25T22:47:26.301Z,14.00
2023-05-25T22:49:52.953Z,13.90
2023-05-25T22:52:19.704Z,13.90
2023-05-25T22:54:46.526Z,13.80
2023-05-25T22:57:13.181Z,13.80
2023-05-25T23:04:36.463Z,13.80
2023-05-25T23:07:03.254Z,13.70
2023-05-25T23:09:29.950Z,13.70
2023-05-25T23:11:56.660Z,13.60
2023-05-25T23:14:23.317Z,13.60
2023-05-25T23:16:50.043Z,13.50
2023-05-25T23:19:17.811Z,13.50
2023-05-25T23:21:44.544Z,13.40
2023-05-25T23:24:11.231Z,13.40
2023-05-25T23:26:37.919Z,13.40
2023-05-25T23:29:04.593Z,13.30
2023-05-25T23:31:31.451Z,13.30
2023-05-25T23:33:58.270Z,13.30
2023-05-25T23:36:26.242Z,13.40
2023-05-25T23:38:53.072Z,13.30
2023-05-25T23:41:19.779Z,13.30
2023-05-25T23:43:46.614Z,13.30
